Time;durP1;ratioP1;P1;durP2;ratioP2;P2;SDS_P1;SDS_P2;PMS_P1;PMS_P2;Temp;Humidity;BMP_temperature;BMP_pressure;BME280_temperature;BME280_humidity;BME280_pressure;Samples;Min_cycle;Max_cycle;Signal;HPM_P1;HPM_P2
2022/06/10 00:00:54;;;;;;;4.30;3.15;;;;;;;;;;5034251;28;20076;-84
2022/06/10 00:03:26;;;;;;;4.15;3.85;;;;;;;;;;5017815;28;20064;-84
2022/06/10 00:05:54;;;;;;;3.58;3.28;;;;;;;;;;5034961;28;20128;-83
2022/06/10 00:08:23;;;;;;;4.07;3.58;;;;;;;;;;5034348;28;20120;-82
2022/06/10 00:10:51;;;;;;;3.95;3.55;;;;;;;;;;5033906;28;20053;-83
2022/06/10 00:13:19;;;;;;;4.57;3.70;;;;;;;;;;5033717;28;20139;-83
2022/06/10 00:15:47;;;;;;;3.42;3.22;;;;;;;;;;5033796;28;20049;-83
2022/06/10 00:18:15;;;;;;;3.67;3.38;;;;;;;;;;5033373;28;20136;-83
2022/06/10 00:20:43;;;;;;;3.45;3.25;;;;;;;;;;5034584;28;20052;-83
2022/06/10 00:23:10;;;;;;;4.40;3.35;;;;;;;;;;5034540;28;20128;-83
2022/06/10 00:25:37;;;;;;;3.55;3.25;;;;;;;;;;5033722;28;20052;-83
2022/06/10 00:28:05;;;;;;;3.17;2.92;;;;;;;;;;5033503;28;20077;-83
2022/06/10 00:30:33;;;;;;;4.05;3.60;;;;;;;;;;5033178;28;20053;-83
2022/06/10 00:33:01;;;;;;;3.78;3.47;;;;;;;;;;5033189;28;20057;-82
2022/06/10 00:35:29;;;;;;;3.67;3.40;;;;;;;;;;5033267;28;20046;-83
2022/06/10 00:37:56;;;;;;;3.85;3.38;;;;;;;;;;5033442;28;20403;-83
2022/06/10 00:40:28;;;;;;;3.33;3.13;;;;;;;;;;5034007;28;20120;-83
2022/06/10 00:42:56;;;;;;;3.90;3.60;;;;;;;;;;5033280;28;20045;-83
2022/06/10 00:45:42;;;;;;;4.70;4.30;;;;;;;;;;5033039;28;20052;-83
2022/06/10 00:48:11;;;;;;;3.88;3.47;;;;;;;;;;5034760;28;20132;-82
2022/06/10 00:50:38;;;;;;;5.15;3.90;;;;;;;;;;5048049;28;20049;-82
2022/06/10 00:53:07;;;;;;;3.78;3.47;;;;;;;;;;5034309;28;20088;-83
2022/06/10 00:55:36;;;;;;;5.10;3.47;;;;;;;;;;5034041;28;20060;-83
2022/06/10 00:58:07;;;;;;;4.28;3.88;;;;;;;;;;5033908;28;20558;-83
2022/06/10 01:00:37;;;;;;;4.10;3.70;;;;;;;;;;5050447;28;20060;-83
2022/06/10 01:03:05;;;;;;;4.38;4.07;;;;;;;;;;5035995;28;20057;-83
2022/06/10 01:05:33;;;;;;;4.78;4.30;;;;;;;;;;5036669;28;20048;-83
2022/06/10 01:08:00;;;;;;;6.88;3.85;;;;;;;;;;5053871;28;20044;-83
2022/06/10 01:10:29;;;;;;;4.55;3.92;;;;;;;;;;5033531;28;20056;-83
2022/06/10 01:13:07;;;;;;;5.00;3.85;;;;;;;;;;5036109;28;20500;-83
2022/06/10 01:15:50;;;;;;;4.00;3.60;;;;;;;;;;5053465;28;20045;-83
2022/06/10 01:18:28;;;;;;;4.05;3.75;;;;;;;;;;5053067;28;20103;-83
2022/06/10 01:21:04;;;;;;;5.28;3.97;;;;;;;;;;5023642;28;20087;-84
2022/06/10 01:23:37;;;;;;;4.53;4.13;;;;;;;;;;5053479;28;20483;-83
2022/06/10 01:26:23;;;;;;;4.57;4.28;;;;;;;;;;5053462;28;20045;-83
2022/06/10 01:28:50;;;;;;;4.43;4.13;;;;;;;;;;5035003;28;20059;-83
2022/06/10 01:31:17;;;;;;;4.97;4.30;;;;;;;;;;5053491;28;20049;-83
2022/06/10 01:33:51;;;;;;;4.43;4.13;;;;;;;;;;5035451;28;20131;-83
2022/06/10 01:36:37;;;;;;;5.93;5.38;;;;;;;;;;5035775;28;20566;-83
2022/06/10 01:39:22;;;;;;;4.60;4.20;;;;;;;;;;5052659;28;20059;-83
2022/06/10 01:42:00;;;;;;;4.40;4.00;;;;;;;;;;5035347;28;20052;-83
2022/06/10 01:44:33;;;;;;;8.10;4.82;;;;;;;;;;5035390;28;20186;-84
2022/06/10 01:47:23;;;;;;;4.72;4.13;;;;;;;;;;5052869;28;20136;-83
2022/06/10 01:49:57;;;;;;;4.47;4.07;;;;;;;;;;5035278;28;20059;-83
2022/06/10 01:52:34;;;;;;;5.00;4.60;;;;;;;;;;5037417;28;20140;-83
2022/06/10 01:55:14;;;;;;;4.20;3.88;;;;;;;;;;5035275;28;20437;-84
2022/06/10 01:58:00;;;;;;;4.43;4.03;;;;;;;;;;5034996;28;20045;-83
2022/06/10 02:00:29;;;;;;;5.63;4.57;;;;;;;;;;5034823;28;20148;-83
2022/06/10 02:03:16;;;;;;;5.32;4.60;;;;;;;;;;5034747;28;20524;-82
2022/06/10 02:05:47;;;;;;;4.78;4.38;;;;;;;;;;5035840;28;20478;-83
2022/06/10 02:08:20;;;;;;;5.22;4.72;;;;;;;;;;5051026;28;20083;-83
2022/06/10 02:10:52;;;;;;;7.15;4.07;;;;;;;;;;5032760;28;20052;-84
2022/06/10 02:13:24;;;;;;;5.43;4.05;;;;;;;;;;5042302;28;20051;-84
2022/06/10 02:15:53;;;;;;;5.03;4.53;;;;;;;;;;5052357;28;20124;-83
2022/06/10 02:18:28;;;;;;;5.78;4.25;;;;;;;;;;5051128;28;20059;-83
2022/06/10 02:21:01;;;;;;;6.20;4.18;;;;;;;;;;5045283;28;20056;-84
2022/06/10 02:23:31;;;;;;;4.20;3.90;;;;;;;;;;5052215;28;20045;-83
2022/06/10 02:26:00;;;;;;;6.15;4.00;;;;;;;;;;5034333;28;20136;-84
2022/06/10 02:28:45;;;;;;;5.50;4.28;;;;;;;;;;5051693;28;20132;-83
2022/06/10 02:31:50;;;;;;;4.65;4.25;;;;;;;;;;5052012;28;20060;-83
2022/06/10 02:34:17;;;;;;;4.97;4.55;;;;;;;;;;4951756;28;20130;-84
2022/06/10 02:36:50;;;;;;;4.63;4.22;;;;;;;;;;4952021;28;20051;-83
2022/06/10 02:39:31;;;;;;;4.70;4.32;;;;;;;;;;5008573;28;20099;-84
2022/06/10 02:42:13;;;;;;;4.72;4.32;;;;;;;;;;5052045;28;20045;-84
2022/06/10 02:44:46;;;;;;;5.22;4.80;;;;;;;;;;5051839;28;20056;-83
2022/06/10 02:47:18;;;;;;;5.50;4.35;;;;;;;;;;5034317;28;20049;-84
2022/06/10 02:49:45;;;;;;;5.30;4.90;;;;;;;;;;5026440;28;20467;-84
2022/06/10 02:52:14;;;;;;;6.00;4.80;;;;;;;;;;5052101;28;20049;-84
2022/06/10 02:54:45;;;;;;;5.13;4.68;;;;;;;;;;5034014;28;20513;-83
2022/06/10 02:57:14;;;;;;;5.68;5.10;;;;;;;;;;5052123;28;20075;-84
2022/06/10 03:02:44;;;;;;;6.95;5.10;;;;;;;;;;5051682;28;20558;-84
2022/06/10 03:05:21;;;;;;;5.80;5.10;;;;;;;;;;5051706;28;20132;-83
2022/06/10 03:07:54;;;;;;;5.57;5.03;;;;;;;;;;5051815;28;20131;-83
2022/06/10 03:10:28;;;;;;;6.07;5.47;;;;;;;;;;5033619;28;20091;-83
2022/06/10 03:13:06;;;;;;;7.10;5.13;;;;;;;;;;5033702;28;20405;-83
2022/06/10 03:15:52;;;;;;;5.75;5.18;;;;;;;;;;5033966;28;20472;-83
2022/06/10 03:18:39;;;;;;;6.38;5.78;;;;;;;;;;5033561;28;20095;-83
2022/06/10 03:21:12;;;;;;;5.22;4.68;;;;;;;;;;5001964;28;20052;-83
2022/06/10 03:24:04;;;;;;;5.13;4.82;;;;;;;;;;5030802;28;20114;-83
2022/06/10 03:26:44;;;;;;;6.30;5.70;;;;;;;;;;5039829;28;20133;-84
2022/06/10 03:29:34;;;;;;;6.05;5.50;;;;;;;;;;5033569;28;20052;-83
2022/06/10 03:32:07;;;;;;;5.78;5.22;;;;;;;;;;5042874;28;20103;-83
2022/06/10 03:34:36;;;;;;;5.67;5.17;;;;;;;;;;5037622;28;20080;-84
2022/06/10 03:37:04;;;;;;;7.55;5.50;;;;;;;;;;5055582;28;20451;-84
2022/06/10 03:39:31;;;;;;;7.28;6.10;;;;;;;;;;5054733;28;20499;-83
2022/06/10 03:42:00;;;;;;;6.35;5.50;;;;;;;;;;5037592;28;20481;-83
2022/06/10 03:44:28;;;;;;;6.05;5.60;;;;;;;;;;5037663;28;20135;-84
2022/06/10 03:46:57;;;;;;;6.68;5.93;;;;;;;;;;5037855;28;20131;-83
2022/06/10 03:49:28;;;;;;;6.38;5.53;;;;;;;;;;5054367;28;20559;-84
2022/06/10 03:51:56;;;;;;;7.30;5.85;;;;;;;;;;5037891;28;20045;-84
2022/06/10 03:54:23;;;;;;;7.47;5.45;;;;;;;;;;5054634;28;20107;-84
2022/06/10 03:56:52;;;;;;;6.60;5.05;;;;;;;;;;5037646;28;20060;-84
2022/06/10 03:59:20;;;;;;;6.40;5.70;;;;;;;;;;5054170;28;20095;-84
2022/06/10 04:01:47;;;;;;;6.45;5.85;;;;;;;;;;5017566;28;20132;-83
2022/06/10 04:04:14;;;;;;;20.80;13.65;;;;;;;;;;5029632;28;20472;-83
2022/06/10 04:06:42;;;;;;;19.58;14.18;;;;;;;;;;5037449;28;20048;-83
2022/06/10 04:09:24;;;;;;;18.57;13.83;;;;;;;;;;5054289;28;20460;-84
2022/06/10 04:11:52;;;;;;;18.13;13.90;;;;;;;;;;5036824;28;20375;-83
2022/06/10 04:14:19;;;;;;;12.43;10.55;;;;;;;;;;5054720;28;20091;-83
2022/06/10 04:16:46;;;;;;;10.40;9.30;;;;;;;;;;5054723;28;20140;-84
2022/06/10 04:19:13;;;;;;;10.43;8.82;;;;;;;;;;5053808;28;20103;-83
2022/06/10 04:21:41;;;;;;;9.75;8.57;;;;;;;;;;5054785;28;20045;-83
2022/06/10 04:24:08;;;;;;;8.13;6.97;;;;;;;;;;5036787;28;20087;-84
2022/06/10 04:26:36;;;;;;;7.68;6.53;;;;;;;;;;5054468;28;20569;-83
2022/06/10 04:29:03;;;;;;;10.95;6.45;;;;;;;;;;5036293;28;20045;-83
2022/06/10 04:31:30;;;;;;;10.82;7.70;;;;;;;;;;5036985;28;20429;-83
2022/06/10 04:33:58;;;;;;;9.57;6.63;;;;;;;;;;5037025;28;20056;-84
2022/06/10 04:36:25;;;;;;;15.65;13.00;;;;;;;;;;5036406;28;20091;-83
2022/06/10 04:38:52;;;;;;;23.38;19.67;;;;;;;;;;5054689;28;20055;-84
2022/06/10 04:41:19;;;;;;;14.32;12.93;;;;;;;;;;5050088;28;20110;-84
2022/06/10 04:43:46;;;;;;;12.32;11.13;;;;;;;;;;5040667;28;20476;-84
2022/06/10 04:46:21;;;;;;;9.45;8.40;;;;;;;;;;5053494;28;20057;-84
2022/06/10 04:48:48;;;;;;;8.05;7.38;;;;;;;;;;5035620;28;20067;-83
2022/06/10 04:51:15;;;;;;;20.05;17.90;;;;;;;;;;5054154;28;20053;-84
2022/06/10 04:53:42;;;;;;;10.45;9.40;;;;;;;;;;5053571;28;20469;-83
2022/06/10 04:56:10;;;;;;;8.68;6.93;;;;;;;;;;5054166;28;20045;-84
2022/06/10 04:58:37;;;;;;;8.55;5.35;;;;;;;;;;5035272;28;20044;-84
2022/06/10 05:01:04;;;;;;;5.50;4.20;;;;;;;;;;5036436;28;20140;-83
2022/06/10 05:03:31;;;;;;;8.02;4.75;;;;;;;;;;5053622;28;20095;-84
2022/06/10 05:05:59;;;;;;;9.13;4.72;;;;;;;;;;5053731;28;20464;-84
2022/06/10 05:08:26;;;;;;;5.07;3.47;;;;;;;;;;5052961;28;20420;-83
2022/06/10 05:10:53;;;;;;;3.28;3.00;;;;;;;;;;5053696;28;20154;-84
2022/06/10 05:13:21;;;;;;;2.72;2.42;;;;;;;;;;5053877;28;20063;-83
2022/06/10 05:15:48;;;;;;;10.15;3.50;;;;;;;;;;5035807;28;20492;-83
2022/06/10 05:18:17;;;;;;;16.85;4.13;;;;;;;;;;5035446;28;20059;-83
2022/06/10 05:20:45;;;;;;;11.18;3.55;;;;;;;;;;5035811;28;20071;-83
2022/06/10 05:23:13;;;;;;;2.90;2.17;;;;;;;;;;5053289;28;20041;-84
2022/06/10 05:25:41;;;;;;;1.73;1.40;;;;;;;;;;5035425;28;20057;-84
2022/06/10 05:28:08;;;;;;;8.10;2.42;;;;;;;;;;5035601;28;20137;-84
2022/06/10 05:30:36;;;;;;;1.73;1.63;;;;;;;;;;5035089;28;20052;-83
2022/06/10 05:33:05;;;;;;;8.75;1.90;;;;;;;;;;5053029;28;20496;-84
2022/06/10 05:35:33;;;;;;;7.55;2.97;;;;;;;;;;5035244;28;20144;-84
2022/06/10 05:38:00;;;;;;;6.72;2.65;;;;;;;;;;5035903;28;20045;-83
2022/06/10 05:40:29;;;;;;;11.45;3.67;;;;;;;;;;5034738;28;20468;-84
2022/06/10 05:42:56;;;;;;;14.48;3.72;;;;;;;;;;5053267;28;20084;-84
2022/06/10 05:45:24;;;;;;;11.27;3.80;;;;;;;;;;5052049;28;20136;-82
2022/06/10 05:47:54;;;;;;;8.60;3.10;;;;;;;;;;5035321;28;20501;-82
2022/06/10 05:50:23;;;;;;;8.32;2.70;;;;;;;;;;5052305;28;20052;-82
2022/06/10 05:52:50;;;;;;;7.57;2.78;;;;;;;;;;5034837;28;20265;-82
2022/06/10 05:55:18;;;;;;;7.13;2.30;;;;;;;;;;5034994;28;20103;-82
2022/06/10 05:57:46;;;;;;;5.15;2.17;;;;;;;;;;5042565;28;20108;-81
2022/06/10 06:00:18;;;;;;;4.95;2.08;;;;;;;;;;5062638;28;20056;-82
2022/06/10 06:02:45;;;;;;;3.47;1.60;;;;;;;;;;5052705;28;20474;-81
2022/06/10 06:05:13;;;;;;;6.13;1.80;;;;;;;;;;5034497;28;20497;-82
2022/06/10 06:07:41;;;;;;;4.63;1.85;;;;;;;;;;5052767;28;20416;-82
2022/06/10 06:10:11;;;;;;;4.43;2.15;;;;;;;;;;5034158;28;20051;-83
2022/06/10 06:12:38;;;;;;;4.55;1.85;;;;;;;;;;5052710;28;20048;-82
2022/06/10 06:15:05;;;;;;;4.85;1.50;;;;;;;;;;5052046;28;20053;-82
2022/06/10 06:17:32;;;;;;;6.80;1.98;;;;;;;;;;5034549;28;20434;-82
2022/06/10 06:20:00;;;;;;;4.10;1.73;;;;;;;;;;5034467;28;20049;-83
2022/06/10 06:22:27;;;;;;;4.80;1.77;;;;;;;;;;5034863;28;20068;-82
2022/06/10 06:24:54;;;;;;;4.25;1.80;;;;;;;;;;5034513;28;20049;-82
2022/06/10 06:27:21;;;;;;;2.97;1.55;;;;;;;;;;5052292;28;20053;-83
2022/06/10 06:29:48;;;;;;;3.30;1.52;;;;;;;;;;5051716;28;20052;-82
2022/06/10 06:32:16;;;;;;;5.53;1.70;;;;;;;;;;5052120;28;20520;-82
2022/06/10 06:34:43;;;;;;;1.60;1.48;;;;;;;;;;5022712;28;20041;-82
2022/06/10 06:37:11;;;;;;;2.35;1.67;;;;;;;;;;5052442;28;20057;-82
2022/06/10 06:39:38;;;;;;;4.03;1.75;;;;;;;;;;5030910;28;20080;-83
2022/06/10 06:42:06;;;;;;;2.05;1.30;;;;;;;;;;5034802;28;20059;-82
2022/06/10 06:44:33;;;;;;;3.00;1.73;;;;;;;;;;5033752;28;20131;-83
2022/06/10 06:47:00;;;;;;;2.95;1.50;;;;;;;;;;5034355;28;20160;-82
2022/06/10 06:49:28;;;;;;;1.65;1.02;;;;;;;;;;5033368;28;20052;-83
2022/06/10 06:51:56;;;;;;;5.45;1.40;;;;;;;;;;5052058;28;20113;-82
2022/06/10 06:54:24;;;;;;;3.92;1.15;;;;;;;;;;5034006;28;20087;-83
2022/06/10 06:56:51;;;;;;;4.82;1.50;;;;;;;;;;5051714;28;20052;-82
2022/06/10 06:59:18;;;;;;;2.67;1.15;;;;;;;;;;5033207;28;20130;-82
2022/06/10 07:01:45;;;;;;;3.10;1.05;;;;;;;;;;5034215;28;20143;-82
2022/06/10 07:04:13;;;;;;;3.80;1.00;;;;;;;;;;5034306;28;20049;-82
2022/06/10 07:06:44;;;;;;;3.92;1.02;;;;;;;;;;5056105;28;20068;-83
2022/06/10 07:09:11;;;;;;;4.82;0.88;;;;;;;;;;5037612;28;20413;-82
2022/06/10 07:11:38;;;;;;;2.22;1.02;;;;;;;;;;5038152;28;20497;-82
2022/06/10 07:14:11;;;;;;;3.85;1.10;;;;;;;;;;5055473;28;20541;-82
2022/06/10 07:16:38;;;;;;;3.78;1.10;;;;;;;;;;5055817;28;20056;-81
2022/06/10 07:19:06;;;;;;;4.30;1.00;;;;;;;;;;5037542;28;20045;-82
2022/06/10 07:21:33;;;;;;;3.80;0.90;;;;;;;;;;5055835;28;20388;-82
2022/06/10 07:24:00;;;;;;;2.10;1.00;;;;;;;;;;5055801;28;20053;-83
2022/06/10 07:26:28;;;;;;;3.97;0.80;;;;;;;;;;5055326;28;20049;-83
2022/06/10 07:28:55;;;;;;;5.28;1.00;;;;;;;;;;5055378;28;20412;-82
2022/06/10 07:31:22;;;;;;;3.10;1.00;;;;;;;;;;5055065;28;20088;-82
2022/06/10 07:33:49;;;;;;;3.05;1.15;;;;;;;;;;5055728;28;20051;-82
2022/06/10 07:36:16;;;;;;;26.13;5.55;;;;;;;;;;5037664;28;20077;-82
2022/06/10 07:38:44;;;;;;;6.30;1.00;;;;;;;;;;5054718;28;20701;-83
2022/06/10 07:43:57;;;;;;;4.53;0.70;;;;;;;;;;5055406;28;20128;-82
2022/06/10 07:46:24;;;;;;;3.63;0.90;;;;;;;;;;5037614;28;20457;-82
2022/06/10 07:48:52;;;;;;;3.35;1.00;;;;;;;;;;5037088;28;20049;-82
2022/06/10 07:51:19;;;;;;;1.70;0.57;;;;;;;;;;5037153;28;20045;-82
2022/06/10 07:53:47;;;;;;;5.07;0.88;;;;;;;;;;5037420;28;20096;-83
2022/06/10 07:56:15;;;;;;;2.50;0.93;;;;;;;;;;5054614;28;20048;-83
2022/06/10 07:58:43;;;;;;;3.17;1.00;;;;;;;;;;5036844;28;20056;-82
2022/06/10 08:01:11;;;;;;;4.60;0.90;;;;;;;;;;5054919;28;20071;-82
2022/06/10 08:03:46;;;;;;;1.90;0.80;;;;;;;;;;5038558;28;20132;-81
2022/06/10 08:06:14;;;;;;;2.00;0.55;;;;;;;;;;5036887;28;20049;-84
2022/06/10 08:08:41;;;;;;;2.92;0.85;;;;;;;;;;5036779;28;20053;-82
2022/06/10 08:11:09;;;;;;;1.35;0.50;;;;;;;;;;5054896;28;20222;-82
2022/06/10 08:13:36;;;;;;;2.00;0.77;;;;;;;;;;5054724;28;20131;-82
2022/06/10 08:16:03;;;;;;;3.22;0.80;;;;;;;;;;5053775;28;20124;-83
2022/06/10 08:18:31;;;;;;;2.00;0.80;;;;;;;;;;5036032;28;20049;-81
2022/06/10 08:23:45;;;;;;;4.18;0.80;;;;;;;;;;5054790;28;20052;-82
2022/06/10 08:26:12;;;;;;;1.70;0.68;;;;;;;;;;5036827;28;20048;-83
2022/06/10 08:28:41;;;;;;;4.18;1.05;;;;;;;;;;5036920;28;20140;-84
2022/06/10 08:31:08;;;;;;;2.38;0.95;;;;;;;;;;5036999;28;20108;-82
2022/06/10 08:33:35;;;;;;;1.83;0.75;;;;;;;;;;5052810;28;20096;-83
2022/06/10 08:36:03;;;;;;;2.20;0.60;;;;;;;;;;5054441;28;20123;-81
2022/06/10 08:38:31;;;;;;;1.52;0.52;;;;;;;;;;5036859;28;20476;-82
2022/06/10 08:41:10;;;;;;;2.65;0.80;;;;;;;;;;5038162;28;20052;-81
2022/06/10 08:43:47;;;;;;;4.82;0.68;;;;;;;;;;5054402;28;20132;-82
2022/06/10 08:46:20;;;;;;;1.38;0.70;;;;;;;;;;5054061;28;20053;-82
2022/06/10 08:49:02;;;;;;;3.70;0.40;;;;;;;;;;5036709;28;20052;-82
2022/06/10 08:51:31;;;;;;;1.27;0.70;;;;;;;;;;5054489;28;20048;-82
2022/06/10 08:53:58;;;;;;;1.77;0.60;;;;;;;;;;5053927;28;20088;-82
2022/06/10 08:56:34;;;;;;;1.38;0.60;;;;;;;;;;5036247;28;20124;-84
2022/06/10 08:59:13;;;;;;;1.48;0.80;;;;;;;;;;5036025;28;20088;-84
2022/06/10 09:02:03;;;;;;;1.95;0.63;;;;;;;;;;5036617;28;20568;-82
2022/06/10 09:04:42;;;;;;;5.45;1.60;;;;;;;;;;5036035;28;20045;-82
2022/06/10 09:07:12;;;;;;;4.57;0.80;;;;;;;;;;5053937;28;20052;-82
2022/06/10 09:09:40;;;;;;;3.35;0.65;;;;;;;;;;5053865;28;20164;-82
2022/06/10 09:12:12;;;;;;;2.55;0.60;;;;;;;;;;5036178;28;20091;-83
2022/06/10 09:14:40;;;;;;;1.20;0.63;;;;;;;;;;5035804;28;20128;-83
2022/06/10 09:17:17;;;;;;;2.08;0.63;;;;;;;;;;5036226;28;20175;-82
2022/06/10 09:20:17;;;;;;;2.00;0.68;;;;;;;;;;5035920;28;20503;-82
2022/06/10 09:23:00;;;;;;;4.85;0.70;;;;;;;;;;5000073;28;20041;-82
2022/06/10 09:25:30;;;;;;;1.65;0.70;;;;;;;;;;5035864;28;20091;-82
2022/06/10 09:27:59;;;;;;;2.50;0.88;;;;;;;;;;5052776;28;20048;-83
2022/06/10 09:30:32;;;;;;;1.67;0.70;;;;;;;;;;5053449;28;20462;-83
2022/06/10 09:33:06;;;;;;;2.05;0.63;;;;;;;;;;5053595;28;20059;-84
2022/06/10 09:35:35;;;;;;;2.40;0.60;;;;;;;;;;5053368;28;20045;-84
2022/06/10 09:38:20;;;;;;;0.85;0.47;;;;;;;;;;5053504;28;20417;-83
2022/06/10 09:41:06;;;;;;;2.75;0.63;;;;;;;;;;5053219;28;20049;-83
2022/06/10 09:43:48;;;;;;;0.88;0.45;;;;;;;;;;5035470;28;20051;-81
2022/06/10 09:46:45;;;;;;;1.42;0.40;;;;;;;;;;5035307;28;20056;-82
2022/06/10 09:49:15;;;;;;;1.30;0.60;;;;;;;;;;4950073;28;20114;-82
2022/06/10 09:51:54;;;;;;;4.10;0.68;;;;;;;;;;5069866;28;20493;-82
2022/06/10 09:54:40;;;;;;;2.90;0.85;;;;;;;;;;5053004;28;20049;-82
2022/06/10 09:57:26;;;;;;;3.40;0.60;;;;;;;;;;5035242;28;20136;-82
2022/06/10 10:00:11;;;;;;;1.88;0.63;;;;;;;;;;5053096;28;20049;-82
2022/06/10 10:02:57;;;;;;;2.15;0.50;;;;;;;;;;5035596;28;20083;-83
2022/06/10 10:05:30;;;;;;;2.95;0.70;;;;;;;;;;5052906;28;20053;-82
2022/06/10 10:08:04;;;;;;;0.93;0.40;;;;;;;;;;5053164;28;20136;-83
2022/06/10 10:10:47;;;;;;;2.95;0.50;;;;;;;;;;5035526;28;20102;-83
2022/06/10 10:13:26;;;;;;;0.88;0.50;;;;;;;;;;5035246;28;20131;-82
2022/06/10 10:16:17;;;;;;;2.60;0.47;;;;;;;;;;5052733;28;20049;-82
2022/06/10 10:18:53;;;;;;;1.80;0.40;;;;;;;;;;5035569;28;20048;-83
2022/06/10 10:21:30;;;;;;;2.75;0.57;;;;;;;;;;5034964;28;20045;-82
2022/06/10 10:23:58;;;;;;;0.75;0.57;;;;;;;;;;5052724;28;20132;-82
2022/06/10 10:26:29;;;;;;;0.45;0.30;;;;;;;;;;5034875;28;20055;-82
2022/06/10 10:29:02;;;;;;;2.88;0.50;;;;;;;;;;5052789;28;20045;-82
2022/06/10 10:31:31;;;;;;;1.70;0.50;;;;;;;;;;5052509;28;20575;-85
2022/06/10 10:34:00;;;;;;;1.67;0.60;;;;;;;;;;5052499;28;20520;-82
2022/06/10 10:36:27;;;;;;;1.40;0.60;;;;;;;;;;5034715;28;20556;-82
2022/06/10 10:38:55;;;;;;;1.02;0.55;;;;;;;;;;5034614;28;20049;-81
2022/06/10 10:41:32;;;;;;;1.00;0.50;;;;;;;;;;5052240;28;20063;-82
2022/06/10 10:44:02;;;;;;;0.75;0.28;;;;;;;;;;5052484;28;20467;-82
2022/06/10 10:46:36;;;;;;;1.90;0.50;;;;;;;;;;5034211;28;20049;-82
2022/06/10 10:49:04;;;;;;;;;;;;;;;;;;5035139;28;20059;-82
2022/06/10 10:51:36;;;;;;;0.68;0.30;;;;;;;;;;5034640;28;19967;-82
2022/06/10 10:54:22;;;;;;;0.70;0.30;;;;;;;;;;5037043;28;20449;-82
2022/06/10 10:56:51;;;;;;;0.38;0.35;;;;;;;;;;5034649;28;20489;-82
2022/06/10 10:59:21;;;;;;;0.45;0.40;;;;;;;;;;5034301;28;20155;-82
2022/06/10 11:01:51;;;;;;;2.70;0.50;;;;;;;;;;5034503;28;20440;-82
2022/06/10 11:04:25;;;;;;;1.85;0.80;;;;;;;;;;5034503;28;20059;-82
2022/06/10 11:07:18;;;;;;;1.45;0.50;;;;;;;;;;5035956;28;20048;-82
2022/06/10 11:09:56;;;;;;;;;;;;;;;;;;5066068;28;20041;-82
2022/06/10 11:12:27;;;;;;;2.25;0.55;;;;;;;;;;5034556;28;19925;-82
2022/06/10 11:14:59;;;;;;;1.92;0.43;;;;;;;;;;5034568;28;20053;-82
2022/06/10 11:17:28;;;;;;;4.80;1.70;;;;;;;;;;5051996;28;20083;-81
2022/06/10 11:20:02;;;;;;;1.27;0.47;;;;;;;;;;5034480;28;20079;-82
2022/06/10 11:22:35;;;;;;;1.38;0.60;;;;;;;;;;5051890;28;20136;-81
2022/06/10 11:25:02;;;;;;;;;;;;;;;;;;5052445;28;20111;-82
2022/06/10 11:27:29;;;;;;;0.40;0.20;;;;;;;;;;5034428;28;20381;-82
2022/06/10 11:30:00;;;;;;;0.52;0.30;;;;;;;;;;5052121;28;20049;-82
2022/06/10 11:32:30;;;;;;;0.40;0.20;;;;;;;;;;5051890;28;20048;-82
2022/06/10 11:35:02;;;;;;;2.17;0.50;;;;;;;;;;5051857;28;20057;-83
2022/06/10 11:37:37;;;;;;;1.33;0.60;;;;;;;;;;5034155;28;20048;-82
2022/06/10 11:40:14;;;;;;;1.27;0.40;;;;;;;;;;5033863;28;20053;-82
2022/06/10 11:42:47;;;;;;;0.82;0.40;;;;;;;;;;5034515;28;20126;-82
2022/06/10 11:45:19;;;;;;;1.65;0.30;;;;;;;;;;5033359;28;20144;-82
2022/06/10 11:48:10;;;;;;;5.32;0.65;;;;;;;;;;5051908;28;20081;-81
2022/06/10 11:50:46;;;;;;;0.82;0.65;;;;;;;;;;5052383;28;20071;-82
2022/06/10 11:53:16;;;;;;;1.08;0.30;;;;;;;;;;5037732;28;20079;-82
2022/06/10 11:55:45;;;;;;;2.22;0.75;;;;;;;;;;5037830;28;20053;-82
2022/06/10 12:01:06;;;;;;;4.03;0.47;;;;;;;;;;5055558;28;20140;-83
2022/06/10 12:03:33;;;;;;;0.65;0.30;;;;;;;;;;5037703;28;20570;-82
2022/06/10 12:06:00;;;;;;;1.05;0.60;;;;;;;;;;5037371;28;20098;-82
2022/06/10 12:08:31;;;;;;;2.35;0.40;;;;;;;;;;5037840;28;20056;-83
2022/06/10 12:11:14;;;;;;;0.55;0.40;;;;;;;;;;5055466;28;20438;-83
2022/06/10 12:13:48;;;;;;;2.97;0.50;;;;;;;;;;5055233;28;20059;-83
2022/06/10 12:16:15;;;;;;;;;;;;;;;;;;5055237;28;20041;-83
2022/06/10 12:18:49;;;;;;;1.05;0.50;;;;;;;;;;5037165;28;19952;-82
2022/06/10 12:21:19;;;;;;;0.55;0.35;;;;;;;;;;5037315;28;20053;-83
2022/06/10 12:23:47;;;;;;;0.88;0.43;;;;;;;;;;5055146;28;20055;-82
2022/06/10 12:26:26;;;;;;;0.90;0.50;;;;;;;;;;5064956;28;20140;-83
2022/06/10 12:29:05;;;;;;;0.50;0.50;;;;;;;;;;5059386;28;20053;-82
2022/06/10 12:31:36;;;;;;;0.40;0.30;;;;;;;;;;5036794;28;20053;-82
2022/06/10 12:34:03;;;;;;;0.90;0.40;;;;;;;;;;5036987;28;20049;-82
2022/06/10 12:36:41;;;;;;;2.30;0.50;;;;;;;;;;5036890;28;20099;-82
2022/06/10 12:39:19;;;;;;;2.05;0.40;;;;;;;;;;5036856;28;20135;-82
2022/06/10 12:41:49;;;;;;;1.90;0.47;;;;;;;;;;5054249;28;20487;-83
2022/06/10 12:44:20;;;;;;;1.10;0.30;;;;;;;;;;5036444;28;20083;-84
2022/06/10 12:46:56;;;;;;;1.45;0.45;;;;;;;;;;5036720;28;20080;-83
2022/06/10 12:49:40;;;;;;;1.42;0.52;;;;;;;;;;5054654;28;20127;-82
2022/06/10 12:52:26;;;;;;;1.17;0.40;;;;;;;;;;5054294;28;20092;-83
2022/06/10 12:55:01;;;;;;;1.65;0.63;;;;;;;;;;5036630;28;20064;-84
2022/06/10 12:57:28;;;;;;;1.50;0.40;;;;;;;;;;5054170;28;20049;-82
2022/06/10 13:00:14;;;;;;;1.88;0.40;;;;;;;;;;5032795;28;20077;-82
2022/06/10 13:02:45;;;;;;;1.92;0.50;;;;;;;;;;5032801;28;20049;-84
2022/06/10 13:05:19;;;;;;;2.55;0.40;;;;;;;;;;5032806;28;20045;-84
2022/06/10 13:07:47;;;;;;;3.67;0.85;;;;;;;;;;5032907;28;20140;-83
2022/06/10 13:10:33;;;;;;;4.43;1.17;;;;;;;;;;5032809;28;20129;-82
2022/06/10 13:13:12;;;;;;;7.32;2.20;;;;;;;;;;5032656;28;20053;-83
2022/06/10 13:15:39;;;;;;;24.73;2.58;;;;;;;;;;5032506;28;20056;-82
2022/06/10 13:18:16;;;;;;;0.85;0.40;;;;;;;;;;5033545;28;20152;-82
2022/06/10 13:20:47;;;;;;;4.68;0.80;;;;;;;;;;5033796;28;20064;-83
2022/06/10 13:23:18;;;;;;;5.82;0.40;;;;;;;;;;5032219;28;20049;-82
2022/06/10 13:25:50;;;;;;;0.43;0.40;;;;;;;;;;5032355;28;20088;-83
2022/06/10 13:28:20;;;;;;;0.82;0.30;;;;;;;;;;5032342;28;20560;-82
2022/06/10 13:30:50;;;;;;;1.42;0.50;;;;;;;;;;5032453;28;20041;-82
2022/06/10 13:33:18;;;;;;;1.15;0.60;;;;;;;;;;5032304;28;20104;-83
2022/06/10 13:35:45;;;;;;;2.38;0.52;;;;;;;;;;5032112;28;20409;-82
2022/06/10 13:38:17;;;;;;;2.80;0.43;;;;;;;;;;5032249;28;20121;-84
2022/06/10 13:41:48;;;;;;;0.77;0.40;;;;;;;;;;5032365;28;20132;-82
2022/06/10 13:43:47;;;;;;;3.63;0.50;;;;;;;;;;5040140;28;20045;-81
2022/06/10 13:46:17;;;;;;;0.75;0.40;;;;;;;;;;5041908;28;20064;-83
2022/06/10 13:48:45;;;;;;;0.63;0.32;;;;;;;;;;5032083;28;20080;-83
2022/06/10 13:51:30;;;;;;;4.22;0.50;;;;;;;;;;5032126;28;20128;-83
2022/06/10 13:54:16;;;;;;;4.75;0.70;;;;;;;;;;5032089;28;20077;-83
2022/06/10 13:56:43;;;;;;;2.95;0.60;;;;;;;;;;5032855;28;20157;-83
2022/06/10 13:59:43;;;;;;;0.70;0.50;;;;;;;;;;5037902;28;20071;-82
2022/06/10 14:02:16;;;;;;;1.30;0.60;;;;;;;;;;4982319;28;20053;-83
2022/06/10 14:04:44;;;;;;;1.83;0.47;;;;;;;;;;5035103;28;20057;-83
2022/06/10 14:07:15;;;;;;;0.63;0.30;;;;;;;;;;5035114;28;20575;-83
2022/06/10 14:09:46;;;;;;;3.78;0.50;;;;;;;;;;5035477;28;20131;-82
2022/06/10 14:12:13;;;;;;;6.53;0.50;;;;;;;;;;5035046;28;20136;-83
2022/06/10 14:14:41;;;;;;;0.73;0.43;;;;;;;;;;5034079;28;20103;-82
2022/06/10 14:17:12;;;;;;;2.65;0.30;;;;;;;;;;5034836;28;20049;-82
2022/06/10 14:19:44;;;;;;;17.52;1.00;;;;;;;;;;5034710;28;20534;-82
2022/06/10 14:22:19;;;;;;;7.68;0.65;;;;;;;;;;5052279;28;20140;-81
2022/06/10 14:25:05;;;;;;;3.05;0.60;;;;;;;;;;5052574;28;20404;-82
2022/06/10 14:27:34;;;;;;;4.28;0.57;;;;;;;;;;5052251;28;20136;-83
2022/06/10 14:30:03;;;;;;;2.25;0.50;;;;;;;;;;5034614;28;20564;-82
2022/06/10 14:32:32;;;;;;;0.93;0.45;;;;;;;;;;5034702;28;20057;-83
2022/06/10 14:35:01;;;;;;;0.73;0.40;;;;;;;;;;5034618;28;20212;-82
2022/06/10 14:37:29;;;;;;;1.58;0.38;;;;;;;;;;5034485;28;20259;-82
2022/06/10 14:40:18;;;;;;;1.10;0.38;;;;;;;;;;5052302;28;20137;-83
2022/06/10 14:43:13;;;;;;;0.73;0.40;;;;;;;;;;5034096;28;20520;-83
2022/06/10 14:45:41;;;;;;;0.98;0.68;;;;;;;;;;5052505;28;20179;-83
2022/06/10 14:48:09;;;;;;;2.50;0.52;;;;;;;;;;5034381;28;20061;-83
2022/06/10 14:50:38;;;;;;;3.42;0.70;;;;;;;;;;5034428;28;20063;-83
2022/06/10 14:53:15;;;;;;;0.88;0.40;;;;;;;;;;5052133;28;20524;-82
2022/06/10 14:55:45;;;;;;;13.23;1.17;;;;;;;;;;5034248;28;20084;-83
2022/06/10 14:58:18;;;;;;;7.30;0.70;;;;;;;;;;5034882;28;20049;-83
2022/06/10 15:00:47;;;;;;;0.63;0.32;;;;;;;;;;5051823;28;20089;-83
2022/06/10 15:03:15;;;;;;;5.20;1.20;;;;;;;;;;5053215;28;20081;-83
2022/06/10 15:08:29;;;;;;;0.40;0.40;;;;;;;;;;5051970;28;20045;-83
2022/06/10 15:11:02;;;;;;;4.00;0.50;;;;;;;;;;5035084;28;20049;-83
2022/06/10 15:13:34;;;;;;;1.75;0.93;;;;;;;;;;5034264;28;20052;-83
2022/06/10 15:16:01;;;;;;;0.50;0.30;;;;;;;;;;5051653;28;20048;-83
2022/06/10 15:18:30;;;;;;;2.05;0.70;;;;;;;;;;5034123;28;20059;-83
2022/06/10 15:20:58;;;;;;;0.70;0.40;;;;;;;;;;5034034;28;20409;-83
2022/06/10 15:23:25;;;;;;;5.03;0.55;;;;;;;;;;5034046;28;20053;-83
2022/06/10 15:25:54;;;;;;;1.17;0.50;;;;;;;;;;5053003;28;20080;-82